EW1071 Weather Reports


Display with metric or nautical units.
time (UTC)temp
F
wind
direction
speed
MPH
gust
MPH
rain 1hr
in
rain 24hr
in
rain mn
in
humidity
%
barometer
mb
20191015063149 61 22 3.0 8.0 0.00 0.01 0.00 79 1014.5
20191015061631 61 21 4.0 14.0 0.00 0.01 0.00 80 1014.4
20191015060132 61 42 2.0 9.0 0.00 0.01 0.00 81 1014.4
20191015054632 61 42 0.0 10.0 0.00 0.01 0.00 81 1014.3
20191015053053 59 38 3.0 6.0 0.00 0.01 0.00 84 1014.4
20191015051555 59 37 2.0 8.0 0.00 0.01 0.00 85 1014.2
20191015050106 58 33 1.0 5.0 0.00 0.01 0.00 86 1014.1
20191015044559 58 33 2.0 6.0 0.00 0.01 0.00 88 1014.1
20191015043037 57 33 0.0 4.0 0.00 0.01 0.00 89 1014.0
20191015041529 56 33 1.0 5.0 0.00 0.01 0.00 90 1014.0
20191015040046 56 33 0.0 3.0 0.00 0.01 0.00 90 1013.7
20191015034526 56 33 1.0 5.0 0.00 0.02 0.00 91 1013.4
20191015033046 55 33 0.0 0.0 0.00 0.02 0.00 91 1013.2
20191015031606 55 33 0.0 1.0 0.00 0.02 0.00 91 1013.1
20191015030104 55 33 0.0 0.0 0.00 0.02 0.00 91 1013.0
20191015024534 55 33 0.0 1.0 0.00 0.02 0.00 90 1012.7
20191015023022 55 33 0.0 2.0 0.00 0.02 0.00 90 1012.5
20191015021513 56 33 0.0 0.0 0.00 0.02 0.00 88 1012.5
20191015020025 56 33 0.0 6.0 0.00 0.02 0.00 88 1012.4
20191015014514 55 37 0.0 1.0 0.00 0.03 0.00 90 1012.5
20191015013033 56 37 0.0 1.0 0.00 0.03 0.00 90 1012.2
20191015011511 56 37 0.0 3.0 0.00 0.03 0.00 89 1012.2
20191015004511 56 37 1.0 4.0 0.00 0.04 0.00 86 1011.9
20191015003014 57 37 2.0 10.0 0.00 0.04 0.00 86 1011.9
20191015001504 57 12 0.0 8.0 0.00 0.04 0.00 86 1012.1
20191015000002 57 343 3.0 13.0 0.00 0.04 0.00 85 1012.2
20191014234710 57 61 5.0 13.0 0.00 0.04 0.00 86 1012.1
20191014233145 57 34 3.0 10.0 0.00 0.04 0.00 86 1012.1
20191014231629 57 293 6.0 23.0 0.00 0.04 0.00 86 1011.8
20191014230242 57 82 2.0 12.0 0.00 0.04 0.00 86 1012.0
20191014224654 57 86 2.0 7.0 0.00 0.05 0.00 87 1012.5
20191014223157 57 85 3.0 9.0 0.00 0.05 0.00 87 1012.9
20191014221613 57 85 1.0 6.0 0.00 0.05 0.00 88 1013.3
20191014220137 57 85 2.0 7.0 0.00 0.05 0.00 88 1013.6
20191014214551 58 85 2.0 6.0 0.00 0.07 0.00 87 1013.8
20191014213151 58 85 0.0 9.0 0.00 0.07 0.00 87 1014.0
20191014211559 58 88 5.0 11.0 0.00 0.07 0.00 87 1013.9
20191014210136 58 98 7.0 14.0 0.00 0.07 0.00 87 1014.2
20191014204604 58 96 5.0 11.0 0.00 0.09 0.07 87 1014.3
20191014203133 58 96 2.0 8.0 0.00 0.09 0.07 86 1014.3
20191014201558 58 93 2.0 13.0 0.00 0.09 0.07 86 1014.2
20191014200136 58 97 8.0 19.0 0.00 0.09 0.07 87 1014.2
20191014194614 58 95 7.0 17.0 0.00 0.10 0.07 87 1013.9
20191014193031 58 101 6.0 15.0 0.00 0.10 0.07 87 1013.9
20191014191600 58 105 5.0 12.0 0.00 0.10 0.07 87 1014.0
20191014190110 58 105 4.0 15.0 0.00 0.10 0.07 87 1013.9
20191014184604 58 105 1.0 13.0 0.00 0.10 0.07 87 1013.8
20191014183124 58 105 1.0 7.0 0.00 0.10 0.07 87 1013.5
20191014181552 58 105 3.0 10.0 0.00 0.10 0.07 87 1013.0
20191014180049 58 105 1.0 7.0 0.00 0.10 0.07 86 1012.7
20191014174639 58 105 4.0 10.0 0.00 0.10 0.07 86 1012.7
20191014173027 58 105 4.0 7.0 0.00 0.10 0.07 86 1012.7
20191014171539 58 105 1.0 9.0 0.00 0.10 0.07 85 1012.5
20191014170030 58 107 4.0 9.0 0.00 0.10 0.07 85 1012.4
20191014164530 59 107 0.0 4.0 0.00 0.10 0.07 84 1012.4
20191014163050 59 107 6.0 12.0 0.00 0.10 0.07 83 1012.3
20191014161531 59 109 1.0 10.0 0.00 0.10 0.07 84 1011.9
20191014160039 60 109 4.0 10.0 0.00 0.10 0.07 83 1011.7
20191014154606 60 109 2.0 12.0 0.00 0.10 0.07 84 1011.7
20191014153040 60 109 0.0 9.0 0.00 0.10 0.07 83 1011.7
20191014151538 60 109 7.0 14.0 0.00 0.10 0.07 84 1011.4
20191014150048 61 111 7.0 17.0 0.00 0.10 0.07 83 1011.1
20191014144530 61 116 8.0 16.0 0.00 0.11 0.07 83 1010.9
20191014143051 61 114 5.0 15.0 0.00 0.11 0.07 83 1011.0
20191014141530 64 116 6.0 12.0 0.00 0.11 0.07 79 1011.1
20191014140023 65 115 6.0 14.0 0.00 0.11 0.07 72 1010.8
20191014134525 65 111 4.0 14.0 0.00 0.11 0.07 74 1010.7
20191014133016 65 119 4.0 12.0 0.00 0.11 0.07 72 1010.7
20191014131523 66 119 5.0 15.0 0.00 0.11 0.07 70 1010.7
20191014130010 65 119 2.0 13.0 0.00 0.11 0.07 74 1010.9
20191014124511 66 119 8.0 14.0 0.00 0.11 0.07 69 1010.8
20191014123006 66 122 3.0 12.0 0.00 0.11 0.07 72 1010.9
20191014121506 63 127 4.0 14.0 0.00 0.11 0.07 77 1011.2
20191014120015 63 134 2.0 13.0 0.00 0.12 0.07 79 1011.5
20191014114502 64 140 2.0 11.0 0.00 0.12 0.07 76 1011.9
20191014113201 66 144 2.0 12.0 0.00 0.12 0.07 71 1012.2
20191014111824 63 140 2.0 11.0 0.00 0.12 0.07 77 1012.4
20191014110141 63 139 4.0 12.0 0.00 0.12 0.07 77 1012.5
20191014104626 63 132 6.0 10.0 0.00 0.12 0.07 76 1012.9
20191014103255 63 134 1.0 7.0 0.00 0.12 0.07 78 1013.0
20191014101710 64 134 1.0 7.0 0.00 0.12 0.07 76 1013.0
20191014100207 62 134 2.0 11.0 0.00 0.12 0.07 80 1013.4
20191014094627 64 135 4.0 9.0 0.00 0.13 0.07 77 1013.5
20191014093203 64 135 2.0 13.0 0.00 0.13 0.07 76 1013.8
20191014091653 64 121 1.0 12.0 0.00 0.13 0.07 77 1014.1
20191014090213 62 124 2.0 10.0 0.01 0.13 0.07 84 1014.4
20191014084616 61 123 1.0 9.0 0.01 0.13 0.07 85 1014.8
20191014083146 62 121 4.0 8.0 0.01 0.13 0.07 82 1014.6
20191014081615 61 120 3.0 8.0 0.01 0.13 0.07 84 1014.8
20191014080225 61 121 6.0 12.0 0.00 0.12 0.06 85 1014.9
20191014074625 60 113 4.0 9.0 0.00 0.12 0.06 88 1015.1
20191014073104 59 113 1.0 10.0 0.00 0.12 0.06 91 1015.1
20191014071615 58 109 4.0 7.0 0.00 0.12 0.06 93 1015.0
20191014070045 58 109 1.0 8.0 0.00 0.12 0.06 94 1015.1
20191014064619 57 109 1.0 9.0 0.00 0.12 0.06 96 1015.1